Time;durP1;ratioP1;P1;durP2;ratioP2;P2;SDS_P1;SDS_P2;PMS_P1;PMS_P2;Temp;Humidity;BMP_temperature;BMP_pressure;BME280_temperature;BME280_humidity;BME280_pressure;Samples;Min_cycle;Max_cycle;Signal;HPM_P1;HPM_P2
2021/05/23 00:00:36;;;;;;;3.03;2.40;;;;;;;10.62;80.26;99092.06;5019107;28;20222;-78
2021/05/23 00:03:07;;;;;;;3.77;2.60;;;;;;;10.57;80.21;99075.88;5004810;28;20230;-80
2021/05/23 00:05:38;;;;;;;3.17;2.40;;;;;;;10.62;80.52;99091.25;5017164;28;20511;-79
2021/05/23 00:08:08;;;;;;;2.93;2.40;;;;;;;10.71;80.48;99098.72;5005903;28;20527;-79
2021/05/23 00:10:52;;;;;;;3.17;2.27;;;;;;;10.74;79.95;99100.09;5019467;28;20246;-82
2021/05/23 00:13:26;;;;;;;2.73;2.30;;;;;;;10.78;79.57;99104.75;4965295;28;20227;-80
2021/05/23 00:15:59;;;;;;;3.87;2.20;;;;;;;10.77;79.41;99091.63;4985301;28;20239;-79
2021/05/23 00:18:28;;;;;;;2.30;2.10;;;;;;;10.84;78.68;99100.34;5020699;28;20284;-79
2021/05/23 00:20:55;;;;;;;3.07;2.30;;;;;;;10.84;78.42;99087.75;5006750;28;20257;-78
2021/05/23 00:23:22;;;;;;;2.97;2.33;;;;;;;10.86;78.63;99080.31;5021112;28;20314;-79
2021/05/23 00:25:51;;;;;;;2.83;2.50;;;;;;;10.93;78.62;99098.94;5021942;28;20585;-79
2021/05/23 00:28:20;;;;;;;2.33;2.10;;;;;;;10.87;78.46;99081.13;5000555;28;20235;-78
2021/05/23 00:30:48;;;;;;;4.03;2.00;;;;;;;10.92;78.38;99084.72;5000453;28;20239;-78
2021/05/23 00:33:17;;;;;;;4.10;2.60;;;;;;;10.99;78.39;99088.09;5004690;28;20218;-79
2021/05/23 00:35:45;;;;;;;3.90;2.27;;;;;;;11.03;77.96;99085.75;5002593;28;20242;-79
2021/05/23 00:38:12;;;;;;;2.80;2.20;;;;;;;11.01;77.67;99082.50;5018283;28;20238;-78
2021/05/23 00:40:39;;;;;;;3.43;2.37;;;;;;;11.06;77.80;99087.16;5019323;28;20234;-78
2021/05/23 00:43:08;;;;;;;3.13;2.50;;;;;;;11.01;77.37;99075.25;5020847;28;20238;-79
2021/05/23 00:45:36;;;;;;;2.90;2.60;;;;;;;11.09;77.18;99092.03;5020758;28;20234;-79
2021/05/23 00:48:06;;;;;;;3.17;2.40;;;;;;;11.10;77.26;99088.31;5005097;28;20230;-79
2021/05/23 00:50:35;;;;;;;2.87;2.40;;;;;;;11.10;77.28;99088.31;5021197;28;20281;-79
2021/05/23 00:53:02;;;;;;;2.40;2.03;;;;;;;11.10;76.80;99082.97;5003130;28;20230;-80
2021/05/23 00:55:30;;;;;;;2.93;2.20;;;;;;;11.04;77.27;99074.00;4987588;28;20227;-79
2021/05/23 00:57:57;;;;;;;2.93;2.27;;;;;;;11.10;77.32;99083.78;5019416;28;20223;-79
2021/05/23 01:00:40;;;;;;;3.30;2.30;;;;;;;11.12;77.26;99086.19;5021048;28;20238;-79
2021/05/23 01:03:29;;;;;;;2.97;2.50;;;;;;;11.08;77.76;99090.41;5018870;28;20654;-78
2021/05/23 01:06:00;;;;;;;3.97;2.60;;;;;;;11.07;77.78;99084.22;5020242;28;20306;-79
2021/05/23 01:08:28;;;;;;;2.93;2.20;;;;;;;10.98;77.07;99072.25;5018751;28;20234;-78
2021/05/23 01:11:01;;;;;;;2.90;2.50;;;;;;;11.08;76.76;99085.88;5005861;28;20227;-79
2021/05/23 01:13:34;;;;;;;3.63;2.40;;;;;;;11.10;76.83;99091.00;5020143;28;20234;-79
2021/05/23 01:16:22;;;;;;;2.73;2.10;;;;;;;11.08;76.86;99088.53;5018002;28;20603;-79
2021/05/23 01:18:51;;;;;;;2.83;2.50;;;;;;;11.10;76.40;99091.00;5019601;28;20535;-79
2021/05/23 01:21:27;;;;;;;2.53;2.23;;;;;;;11.08;75.88;99085.88;5018288;28;20234;-78
2021/05/23 01:23:59;;;;;;;3.43;2.47;;;;;;;11.08;75.61;99072.47;5001603;28;20285;-79
2021/05/23 01:26:33;;;;;;;2.90;2.40;;;;;;;11.07;75.61;99070.81;5002219;28;20234;-79
2021/05/23 01:29:06;;;;;;;2.20;2.00;;;;;;;11.14;74.40;99081.44;5001567;28;20231;-78
2021/05/23 01:31:35;;;;;;;3.03;2.10;;;;;;;11.18;74.48;99083.41;5020599;28;20214;-79
2021/05/23 01:34:04;;;;;;;3.37;2.20;;;;;;;11.13;74.18;99082.47;5018147;28;20239;-79
2021/05/23 01:36:35;;;;;;;3.27;2.10;;;;;;;11.25;73.70;99092.13;5020494;28;20227;-79
2021/05/23 01:39:07;;;;;;;2.77;2.00;;;;;;;11.06;74.15;99073.75;5003591;28;20231;-79
2021/05/23 01:41:36;;;;;;;4.15;2.55;;;;;;;11.18;73.83;99069.19;5017487;28;20227;-79
2021/05/23 01:44:04;;;;;;;2.73;2.40;;;;;;;11.17;74.82;99083.63;5002465;28;20231;-79
2021/05/23 01:46:31;;;;;;;3.03;2.77;;;;;;;11.10;74.87;99080.28;5019546;28;20229;-78
2021/05/23 01:49:01;;;;;;;3.03;2.60;;;;;;;11.11;75.11;99076.53;5001546;28;20605;-79
2021/05/23 01:51:28;;;;;;;3.40;2.50;;;;;;;11.14;74.98;99079.56;5020061;28;20231;-78
2021/05/23 01:53:55;;;;;;;3.00;2.57;;;;;;;11.09;75.33;99079.47;5018215;28;20572;-78
2021/05/23 01:56:21;;;;;;;3.50;2.57;;;;;;;11.03;75.71;99077.72;5002954;28;20230;-79
2021/05/23 01:58:48;;;;;;;3.73;2.40;;;;;;;11.02;76.11;99079.56;5020404;28;20276;-79
2021/05/23 02:01:18;;;;;;;3.40;2.57;;;;;;;10.99;75.98;99077.38;5004149;28;20257;-81
2021/05/23 02:03:46;;;;;;;2.80;2.40;;;;;;;10.93;76.15;99081.00;5017769;28;20222;-79
2021/05/23 02:06:21;;;;;;;3.17;2.80;;;;;;;11.00;76.08;99067.47;5018722;28;20230;-79
2021/05/23 02:08:48;;;;;;;3.33;2.67;;;;;;;11.00;76.25;99062.94;5019460;28;20649;-79
2021/05/23 02:11:15;;;;;;;3.20;2.90;;;;;;;10.99;76.50;99063.97;5003210;28;20227;-78
2021/05/23 02:13:42;;;;;;;4.10;2.87;;;;;;;10.95;76.86;99067.34;5003635;28;20231;-81
2021/05/23 02:16:09;;;;;;;3.40;2.70;;;;;;;10.94;77.04;99066.53;5018563;28;20724;-79
2021/05/23 02:18:36;;;;;;;2.70;2.50;;;;;;;11.02;77.45;99087.63;5002709;28;20289;-79
2021/05/23 02:21:06;;;;;;;2.97;2.70;;;;;;;10.96;77.14;99080.50;5001007;28;20313;-80
2021/05/23 02:23:33;;;;;;;3.53;2.50;;;;;;;10.99;77.04;99081.91;5019103;28;20222;-79
2021/05/23 02:26:00;;;;;;;3.17;2.50;;;;;;;10.99;77.08;99079.25;5019202;28;20265;-80
2021/05/23 02:28:27;;;;;;;3.80;2.33;;;;;;;11.00;77.18;99091.59;5018724;28;21011;-79
2021/05/23 02:30:55;;;;;;;2.40;2.20;;;;;;;11.02;77.08;99092.97;5030905;23;20234;-80
2021/05/23 02:33:24;;;;;;;2.63;2.30;;;;;;;11.01;77.26;99093.22;5043084;28;20315;-80
2021/05/23 02:35:55;;;;;;;2.97;2.47;;;;;;;10.94;76.70;99093.34;5043203;28;20645;-79
2021/05/23 02:38:22;;;;;;;2.93;2.50;;;;;;;11.03;76.89;99101.84;5040839;28;20246;-79
2021/05/23 02:40:50;;;;;;;2.50;2.30;;;;;;;11.05;77.31;99110.47;5023784;28;20234;-79
2021/05/23 02:43:19;;;;;;;2.50;2.30;;;;;;;10.95;78.04;99100.34;5041429;28;20221;-78
2021/05/23 02:45:49;;;;;;;2.93;2.63;;;;;;;10.90;78.32;99099.41;5041921;28;20283;-79
2021/05/23 02:48:16;;;;;;;2.83;2.57;;;;;;;10.85;78.66;99105.47;5008035;28;20229;-78
2021/05/23 02:50:49;;;;;;;3.37;2.60;;;;;;;10.85;78.91;99101.97;5043095;28;20241;-79
2021/05/23 02:53:16;;;;;;;3.67;2.73;;;;;;;10.83;79.01;99090.66;5025484;28;20234;-80
2021/05/23 02:55:44;;;;;;;3.37;2.60;;;;;;;10.85;79.09;99096.63;5041977;28;20225;-79
2021/05/23 02:58:12;;;;;;;3.13;2.60;;;;;;;10.81;79.08;99087.41;5040771;28;20293;-80
2021/05/23 03:00:40;;;;;;;3.27;2.97;;;;;;;10.85;79.42;99104.66;5041827;28;20234;-79
2021/05/23 03:03:07;;;;;;;2.87;2.50;;;;;;;11.06;77.86;99104.03;5043931;28;20226;-79
2021/05/23 03:05:35;;;;;;;6.67;2.90;;;;;;;10.86;78.82;99101.75;5023247;28;20230;-79
2021/05/23 03:08:03;;;;;;;4.03;3.20;;;;;;;10.88;79.33;99114.91;5042133;28;20230;-79
2021/05/23 03:10:32;;;;;;;2.93;2.63;;;;;;;10.81;79.52;99100.81;5024965;28;20222;-80
2021/05/23 03:13:02;;;;;;;2.90;2.60;;;;;;;10.80;79.33;99117.94;5044404;28;20668;-80
2021/05/23 03:15:32;;;;;;;3.03;2.50;;;;;;;10.97;79.42;99129.56;5049853;28;20229;-81
2021/05/23 03:17:59;;;;;;;4.23;2.87;;;;;;;10.99;79.39;99132.84;5050014;28;20256;-80
2021/05/23 03:20:27;;;;;;;3.33;3.03;;;;;;;10.94;79.75;99138.91;5032655;28;20222;-81
2021/05/23 03:22:56;;;;;;;3.30;3.00;;;;;;;10.97;79.60;99141.09;5048439;28;20241;-79
2021/05/23 03:25:24;;;;;;;3.40;3.10;;;;;;;10.85;80.22;99128.78;5049448;28;20234;-79
2021/05/23 03:27:53;;;;;;;4.67;3.03;;;;;;;10.92;80.16;99150.91;5050054;28;20329;-79
2021/05/23 03:30:26;;;;;;;3.53;2.90;;;;;;;10.90;80.19;99136.94;5049928;28;20231;-79
2021/05/23 03:32:53;;;;;;;3.77;3.40;;;;;;;10.88;80.84;99139.84;5048628;28;20230;-81
2021/05/23 03:35:20;;;;;;;3.40;3.10;;;;;;;10.90;80.61;99139.59;5049186;28;20229;-81
2021/05/23 03:37:47;;;;;;;4.17;3.67;;;;;;;10.94;80.70;99149.63;5049568;28;20237;-80
2021/05/23 03:40:16;;;;;;;4.00;3.20;;;;;;;10.96;80.93;99149.41;5028029;28;20227;-80
2021/05/23 03:42:48;;;;;;;3.50;3.20;;;;;;;10.99;80.36;99136.34;5031082;28;20227;-81
2021/05/23 03:45:16;;;;;;;3.30;3.00;;;;;;;11.02;80.69;99143.09;5040872;28;20217;-82
2021/05/23 03:47:44;;;;;;;4.63;3.20;;;;;;;11.07;80.84;99158.47;5050194;28;20256;-81
2021/05/23 03:50:18;;;;;;;3.70;3.30;;;;;;;11.03;80.92;99148.22;5051925;28;20269;-79
2021/05/23 03:52:49;;;;;;;5.20;3.20;;;;;;;11.06;80.94;99152.28;5049459;28;20233;-82
2021/05/23 03:55:19;;;;;;;5.00;3.17;;;;;;;11.15;81.18;99175.00;5051110;28;20225;-79
2021/05/23 03:57:47;;;;;;;3.37;3.07;;;;;;;11.19;80.80;99176.22;5049408;28;20217;-81
2021/05/23 04:00:18;;;;;;;3.90;3.27;;;;;;;11.18;80.96;99179.09;5048681;28;20229;-81
2021/05/23 04:02:51;;;;;;;3.17;2.87;;;;;;;11.18;81.30;99187.16;5049618;28;20237;-81
2021/05/23 04:05:17;;;;;;;3.37;2.67;;;;;;;11.18;81.19;99187.97;5048704;28;20237;-81
2021/05/23 04:07:48;;;;;;;2.93;2.73;;;;;;;11.17;80.56;99180.97;5050155;28;20217;-80
2021/05/23 04:10:20;;;;;;;3.33;2.60;;;;;;;11.22;80.80;99191.81;5049562;28;20247;-81
2021/05/23 04:12:49;;;;;;;3.17;2.80;;;;;;;11.25;80.53;99199.38;5049871;28;20237;-81
2021/05/23 04:15:25;;;;;;;4.00;2.73;;;;;;;11.36;80.15;99200.44;5049555;28;20229;-79
2021/05/23 04:17:53;;;;;;;4.60;2.63;;;;;;;11.37;80.19;99208.25;5050778;28;20265;-79
2021/05/23 04:20:22;;;;;;;3.03;2.67;;;;;;;11.43;80.57;99217.22;5051861;28;20237;-80
2021/05/23 04:22:52;;;;;;;6.10;3.50;;;;;;;11.42;80.62;99208.38;5051119;28;20230;-82
2021/05/23 04:25:22;;;;;;;15.70;12.20;;;;;;;11.52;80.33;99206.94;5033743;28;20257;-79
2021/05/23 04:27:50;;;;;;;5.63;5.10;;;;;;;11.62;79.96;99209.84;5055558;22;20226;-80
2021/05/23 04:30:24;;;;;;;3.47;3.17;;;;;;;11.64;79.46;99216.59;5016445;28;20598;-79
2021/05/23 04:32:51;;;;;;;3.20;2.90;;;;;;;11.68;79.15;99223.13;5031709;28;20678;-80
2021/05/23 04:35:23;;;;;;;2.60;2.33;;;;;;;11.72;78.81;99229.69;5040431;23;20241;-78
2021/05/23 04:37:50;;;;;;;2.63;2.37;;;;;;;11.73;78.88;99217.06;5036077;28;20179;-80
2021/05/23 04:40:18;;;;;;;2.43;2.23;;;;;;;11.83;78.83;99218.13;5035374;28;20225;-81
2021/05/23 04:42:48;;;;;;;3.67;2.20;;;;;;;11.81;78.31;99212.16;5035200;28;20226;-80
2021/05/23 04:45:38;;;;;;;2.63;2.23;;;;;;;11.97;78.19;99217.84;5036843;28;20203;-81
2021/05/23 04:48:08;;;;;;;2.13;1.93;;;;;;;12.04;77.51;99219.31;5034144;28;20227;-81
2021/05/23 04:50:43;;;;;;;2.00;1.80;;;;;;;12.09;77.86;99227.47;5034996;28;20210;-78
2021/05/23 04:53:10;;;;;;;2.60;2.20;;;;;;;12.09;77.74;99214.03;5056117;23;20260;-79
2021/05/23 04:55:50;;;;;;;2.90;2.00;;;;;;;12.31;77.76;99219.59;5055411;28;20171;-79
2021/05/23 04:58:24;;;;;;;3.30;2.17;;;;;;;12.39;77.88;99211.13;5072424;28;20221;-81
2021/05/23 05:01:07;;;;;;;2.57;2.30;;;;;;;12.53;77.46;99214.31;5054870;28;20259;-82
2021/05/23 05:03:42;;;;;;;2.30;2.10;;;;;;;12.59;77.09;99219.56;5052235;23;20238;-80
2021/05/23 05:06:16;;;;;;;3.23;2.30;;;;;;;12.64;76.71;99222.34;5043036;23;20236;-79
2021/05/23 05:08:43;;;;;;;3.73;2.90;;;;;;;12.63;76.40;99226.06;5021050;28;20174;-79
2021/05/23 05:11:35;;;;;;;2.60;2.33;;;;;;;12.76;76.72;99227.63;5036767;28;20211;-79
2021/05/23 05:14:49;;;;;;;2.30;2.10;;;;;;;12.84;76.47;99221.03;5050370;28;20277;-79
2021/05/23 05:17:16;;;;;;;3.13;2.00;;;;;;;12.92;76.75;99229.53;5057769;23;20218;-80
2021/05/23 05:20:16;;;;;;;3.03;2.50;;;;;;;12.94;76.06;99226.56;5066956;22;20234;-78
2021/05/23 05:22:47;;;;;;;2.80;2.57;;;;;;;12.96;76.91;99225.28;5037882;28;20249;-78
2021/05/23 05:25:30;;;;;;;4.23;3.00;;;;;;;13.04;76.37;99211.41;5019412;28;20227;-79
2021/05/23 05:28:34;;;;;;;3.10;2.80;;;;;;;13.15;75.65;99193.59;5037428;28;20191;-79
2021/05/23 05:31:21;;;;;;;3.00;2.80;;;;;;;13.37;75.76;99205.22;5028367;28;20609;-78
2021/05/23 05:33:59;;;;;;;2.80;2.60;;;;;;;13.61;75.74;99205.81;5060441;23;20229;-78
2021/05/23 05:36:28;;;;;;;3.10;2.40;;;;;;;13.81;74.76;99208.75;5047490;28;20233;-78
2021/05/23 05:38:55;;;;;;;3.17;2.97;;;;;;;13.88;74.30;99205.88;5049059;28;20188;-78
2021/05/23 05:41:30;;;;;;;3.00;2.80;;;;;;;13.82;74.33;99206.88;5045825;28;20178;-78
2021/05/23 05:43:57;;;;;;;2.63;2.43;;;;;;;13.75;73.91;99204.38;5043718;28;20230;-79
2021/05/23 05:46:24;;;;;;;2.97;2.70;;;;;;;13.65;74.40;99207.75;5041528;28;20297;-78
2021/05/23 05:48:51;;;;;;;2.67;2.47;;;;;;;13.68;74.63;99203.72;5022529;28;20226;-84
2021/05/23 05:51:17;;;;;;;2.97;2.40;;;;;;;13.71;74.40;99213.22;5037929;28;20231;-80
2021/05/23 05:53:44;;;;;;;4.27;2.90;;;;;;;13.72;74.35;99204.06;5036916;28;20654;-79
2021/05/23 05:56:11;;;;;;;3.20;2.90;;;;;;;13.85;75.14;99209.06;5036464;28;20253;-83
2021/05/23 05:58:38;;;;;;;3.20;2.90;;;;;;;14.01;74.60;99210.88;5017548;28;20229;-84
2021/05/23 06:01:05;;;;;;;3.70;3.10;;;;;;;14.23;74.35;99197.41;5034121;28;20227;-83
2021/05/23 06:03:32;;;;;;;4.40;2.90;;;;;;;14.58;73.50;99207.72;5033871;28;20511;-84
2021/05/23 06:05:58;;;;;;;4.60;3.27;;;;;;;14.65;73.15;99206.44;5021529;28;20552;-85
2021/05/23 06:08:25;;;;;;;3.17;2.87;;;;;;;14.65;72.82;99195.66;5021715;28;20564;-85
2021/05/23 06:10:52;;;;;;;2.70;2.50;;;;;;;14.70;72.27;99205.66;5021545;28;20230;-85
2021/05/23 06:13:19;;;;;;;4.13;2.87;;;;;;;14.66;72.27;99208.06;5021408;28;20222;-82
2021/05/23 06:15:45;;;;;;;3.43;2.73;;;;;;;14.53;72.18;99203.91;5021248;28;20224;-87
2021/05/23 06:18:12;;;;;;;3.93;2.93;;;;;;;14.63;72.46;99213.16;5037452;28;20228;-85
2021/05/23 06:20:39;;;;;;;3.83;2.90;;;;;;;14.61;72.62;99197.25;5021399;28;20293;-84
2021/05/23 06:23:07;;;;;;;4.63;2.90;;;;;;;14.64;72.22;99212.09;5021121;28;20649;-86
2021/05/23 06:25:34;;;;;;;3.30;3.00;;;;;;;14.58;72.43;99202.34;5021444;28;20292;-87
2021/05/23 06:28:01;;;;;;;4.87;2.90;;;;;;;14.57;72.30;99208.78;5037058;28;20227;-84
2021/05/23 06:30:28;;;;;;;4.40;3.10;;;;;;;14.62;72.36;99214.22;5037773;28;20232;-86
2021/05/23 06:32:54;;;;;;;3.50;3.20;;;;;;;14.54;72.56;99202.03;5037097;28;20243;-87
2021/05/23 06:35:21;;;;;;;4.00;3.70;;;;;;;14.58;73.10;99202.34;5020916;28;20231;-87
2021/05/23 06:37:48;;;;;;;4.30;3.10;;;;;;;14.59;72.83;99210.19;5020979;28;20236;-85
2021/05/23 06:40:15;;;;;;;4.23;3.90;;;;;;;14.68;72.76;99207.81;5036731;28;20676;-87
2021/05/23 06:42:42;;;;;;;4.70;3.20;;;;;;;14.69;72.17;99212.97;5037165;28;20678;-87
2021/05/23 06:45:09;;;;;;;3.33;3.07;;;;;;;14.74;72.15;99202.22;5037195;28;20641;-85
2021/05/23 06:47:36;;;;;;;3.50;3.20;;;;;;;14.74;72.30;99207.63;5020719;28;20236;-86
2021/05/23 06:50:03;;;;;;;5.00;3.30;;;;;;;14.76;72.75;99212.75;5020220;28;20231;-87
2021/05/23 06:52:30;;;;;;;3.37;2.60;;;;;;;14.65;72.48;99203.75;5036999;28;20382;-86
2021/05/23 06:54:57;;;;;;;3.17;2.87;;;;;;;14.73;72.59;99213.25;5036990;28;20297;-81
2021/05/23 06:57:24;;;;;;;3.20;2.60;;;;;;;14.68;72.83;99203.25;5021624;28;20215;-87
2021/05/23 06:59:52;;;;;;;2.90;2.70;;;;;;;14.90;72.77;99219.34;5027809;28;20315;-89
2021/05/23 07:02:20;;;;;;;3.10;2.60;;;;;;;14.97;72.31;99207.28;5027846;28;20228;-86
2021/05/23 07:04:47;;;;;;;2.70;2.17;;;;;;;15.26;70.68;99223.91;5045159;28;20232;-88
2021/05/23 07:07:19;;;;;;;2.97;2.30;;;;;;;15.33;70.38;99231.81;5028920;28;20318;-84
2021/05/23 07:09:45;;;;;;;3.10;2.00;;;;;;;15.38;70.57;99229.97;5027083;28;20231;-89
2021/05/23 07:12:12;;;;;;;3.00;2.20;;;;;;;15.30;71.34;99226.94;5026939;28;20220;-88
2021/05/23 07:14:39;;;;;;;1.60;1.50;;;;;;;15.29;70.52;99228.00;5049731;28;20231;-89
2021/05/23 07:17:06;;;;;;;2.20;1.50;;;;;;;15.28;70.06;99235.28;5027003;28;20238;-87
2021/05/23 07:19:32;;;;;;;1.87;1.10;;;;;;;15.25;69.70;99224.19;5045171;28;20233;-89
2021/05/23 07:21:59;;;;;;;1.37;1.27;;;;;;;15.12;70.06;99222.75;5045637;28;20231;-88
2021/05/23 07:24:26;;;;;;;1.23;1.03;;;;;;;15.44;69.15;99220.78;5031592;28;20576;-80
2021/05/23 07:26:53;;;;;;;3.33;1.20;;;;;;;15.82;65.56;99214.28;5026703;28;20225;-84
2021/05/23 07:29:19;;;;;;;1.87;1.20;;;;;;;16.28;65.73;99217.16;5026312;28;20271;-81
2021/05/23 07:31:46;;;;;;;1.40;1.30;;;;;;;16.55;65.79;99227.75;5019242;28;20255;-82
2021/05/23 07:34:13;;;;;;;1.50;1.40;;;;;;;16.47;65.60;99225.59;5035139;28;20240;-81
2021/05/23 07:36:40;;;;;;;2.17;1.00;;;;;;;16.15;64.54;99228.44;5019503;28;20229;-81
2021/05/23 07:39:07;;;;;;;1.47;1.10;;;;;;;15.99;64.10;99235.72;5035594;28;20233;-82
2021/05/23 07:41:34;;;;;;;1.43;1.30;;;;;;;15.86;63.19;99226.19;5019122;28;20237;-81
2021/05/23 07:44:01;;;;;;;1.50;1.20;;;;;;;15.79;65.20;99231.03;5018649;28;20291;-81
2021/05/23 07:46:28;;;;;;;2.60;1.33;;;;;;;15.71;66.86;99225.31;5019339;28;20222;-83
2021/05/23 07:48:54;;;;;;;1.40;1.30;;;;;;;15.41;68.35;99234.81;5019073;28;20226;-82
2021/05/23 07:51:21;;;;;;;1.60;1.50;;;;;;;15.30;69.29;99243.13;5035559;28;20229;-81
2021/05/23 07:53:48;;;;;;;2.67;1.70;;;;;;;15.01;69.83;99229.16;5033590;28;20229;-81
2021/05/23 07:56:15;;;;;;;2.37;1.47;;;;;;;15.03;71.03;99235.09;5017094;28;20244;-81
2021/05/23 07:58:41;;;;;;;1.83;1.50;;;;;;;15.11;70.91;99241.91;5017342;28;20288;-80
2021/05/23 08:01:09;;;;;;;1.70;1.60;;;;;;;15.23;71.21;99231.72;5035103;28;20229;-81
2021/05/23 08:03:36;;;;;;;2.30;1.57;;;;;;;15.10;70.39;99224.91;5018267;28;20664;-82
2021/05/23 08:06:05;;;;;;;2.47;1.70;;;;;;;15.37;70.74;99236.41;5001753;28;20233;-85
2021/05/23 08:08:32;;;;;;;2.83;2.13;;;;;;;15.21;71.75;99247.38;5002625;28;20225;-83
2021/05/23 08:10:58;;;;;;;2.63;1.97;;;;;;;15.21;71.45;99250.09;5018477;28;20650;-82
2021/05/23 08:13:25;;;;;;;2.17;1.97;;;;;;;15.06;71.21;99260.75;5035920;28;20248;-83
2021/05/23 08:15:54;;;;;;;2.77;1.70;;;;;;;14.94;71.41;99261.72;5035680;28;20258;-82
2021/05/23 08:18:27;;;;;;;2.17;1.97;;;;;;;14.74;72.54;99263.44;5034314;28;20297;-82
2021/05/23 08:20:59;;;;;;;1.87;1.77;;;;;;;14.54;72.77;99278.34;5018942;28;20239;-83
2021/05/23 08:23:28;;;;;;;1.67;1.57;;;;;;;14.58;72.76;99267.84;5034552;28;20228;-83
2021/05/23 08:25:57;;;;;;;2.10;1.70;;;;;;;14.53;73.22;99279.41;5018313;28;20254;-82
2021/05/23 08:28:25;;;;;;;2.27;1.90;;;;;;;14.30;72.90;99276.13;5017492;28;20232;-81
2021/05/23 08:30:51;;;;;;;2.47;1.90;;;;;;;14.13;73.89;99275.41;5017858;28;20236;-81
2021/05/23 08:33:19;;;;;;;2.33;1.47;;;;;;;14.10;73.52;99268.63;5034139;28;20235;-80
2021/05/23 08:35:46;;;;;;;3.00;1.87;;;;;;;14.10;73.98;99277.53;5034080;28;20229;-81
2021/05/23 08:38:14;;;;;;;1.90;1.70;;;;;;;13.80;75.63;99269.06;5014527;28;20223;-81
2021/05/23 08:41:38;;;;;;;2.20;2.00;;;;;;;13.83;74.92;99268.56;5075250;23;20236;-78
2021/05/23 08:45:18;;;;;;;2.80;2.20;;;;;;;13.87;75.90;99276.94;5157286;23;20246;-77
2021/05/23 08:49:07;;;;;;;3.80;3.30;;;;;;;13.99;75.75;99293.81;5071980;23;20225;-80
2021/05/23 08:52:25;;;;;;;3.47;3.17;;;;;;;13.73;76.47;99295.34;5078684;22;20211;-78
2021/05/23 08:55:21;;;;;;;3.50;3.20;;;;;;;13.36;78.25;99265.47;5095003;22;20326;-79
2021/05/23 08:58:30;;;;;;;3.50;3.13;;;;;;;13.66;78.57;99302.78;5097894;22;20213;-79
2021/05/23 09:02:08;;;;;;;2.73;2.53;;;;;;;13.68;78.47;99303.34;5017926;22;20229;-78
2021/05/23 09:06:18;;;;;;;2.77;1.87;;;;;;;13.77;77.64;99312.63;5071260;23;20217;-79
2021/05/23 09:09:21;;;;;;;2.63;1.37;;;;;;;13.32;76.67;99311.94;5080113;22;20228;-80
2021/05/23 09:17:24;;;;;;;1.47;1.10;;;;;;;13.17;78.03;99364.44;5206631;22;20218;-76
2021/05/23 09:21:30;;;;;;;2.50;1.33;;;;;;;13.23;78.33;99374.22;5292574;22;20229;-77
2021/05/23 09:25:48;;;;;;;3.73;2.20;;;;;;;13.43;77.47;99368.38;5114799;22;20980;-77
2021/05/23 09:29:18;;;;;;;2.60;1.43;;;;;;;13.47;78.33;99374.91;5169979;22;20237;-77
2021/05/23 09:32:46;;;;;;;2.17;1.23;;;;;;;13.70;77.34;99370.41;5116279;22;20216;-78
2021/05/23 09:36:26;;;;;;;2.43;1.23;;;;;;;13.80;76.37;99368.69;5095079;22;20208;-77
2021/05/23 09:40:18;;;;;;;1.43;1.00;;;;;;;13.64;75.83;99369.50;5056656;23;20227;-79
2021/05/23 09:44:39;;;;;;;1.13;1.00;;;;;;;13.78;76.05;99380.75;5069502;22;20213;-77
2021/05/23 09:48:30;;;;;;;1.07;0.80;;;;;;;13.76;76.47;99396.34;5101695;23;20181;-77
2021/05/23 09:52:05;;;;;;;1.60;0.80;;;;;;;13.47;74.35;99406.38;5259778;22;20288;-77
2021/05/23 09:55:05;;;;;;;3.30;1.00;;;;;;;13.45;74.81;99412.00;5079265;23;20233;-78
2021/05/23 09:58:41;;;;;;;2.10;0.97;;;;;;;13.57;75.28;99423.53;5177826;22;20280;-79
2021/05/23 10:02:09;;;;;;;1.43;0.70;;;;;;;13.56;75.71;99423.75;5176646;22;20216;-78
2021/05/23 10:04:52;;;;;;;2.20;0.70;;;;;;;13.59;74.13;99426.78;5046207;22;20252;-78
2021/05/23 10:07:55;;;;;;;1.80;0.90;;;;;;;13.41;74.58;99427.00;5090133;23;20285;-78
2021/05/23 10:11:32;;;;;;;1.37;0.80;;;;;;;13.43;74.00;99441.03;5097589;28;20192;-78
2021/05/23 10:14:44;;;;;;;1.73;0.90;;;;;;;13.40;74.33;99438.81;5092585;23;20205;-77
2021/05/23 10:18:19;;;;;;;2.00;0.80;;;;;;;13.45;73.86;99425.44;5088538;22;20210;-79
2021/05/23 10:21:26;;;;;;;1.40;0.90;;;;;;;13.78;73.80;99446.19;5076833;28;20280;-79
2021/05/23 10:24:41;;;;;;;0.90;0.73;;;;;;;13.85;73.08;99449.56;5183068;22;20297;31
2021/05/23 10:27:52;;;;;;;1.57;0.80;;;;;;;14.01;73.35;99451.41;5082962;22;20212;-79
2021/05/23 10:30:59;;;;;;;1.40;0.80;;;;;;;14.13;71.32;99458.59;5036249;28;20195;-79
2021/05/23 10:34:04;;;;;;;1.27;0.70;;;;;;;14.19;71.20;99454.88;5070543;23;20283;-80
2021/05/23 10:36:46;;;;;;;1.97;0.90;;;;;;;14.47;71.52;99455.59;5083246;28;20223;-79
2021/05/23 10:39:23;;;;;;;1.23;0.80;;;;;;;14.69;69.69;99462.91;5096644;22;20327;-79
2021/05/23 10:42:12;;;;;;;2.10;0.90;;;;;;;15.04;69.17;99471.44;5098883;23;20236;-78
2021/05/23 10:45:39;;;;;;;1.80;0.70;;;;;;;15.02;68.06;99487.06;5047169;22;20212;-78
2021/05/23 10:48:20;;;;;;;1.43;0.70;;;;;;;15.01;68.22;99481.91;5102527;22;20237;-79
2021/05/23 10:50:49;;;;;;;1.87;0.80;;;;;;;14.96;67.80;99477.28;5080371;28;20497;-84
2021/05/23 10:53:16;;;;;;;1.90;1.00;;;;;;;14.75;68.60;99480.78;5077321;28;20237;-85
2021/05/23 10:55:48;;;;;;;2.20;0.73;;;;;;;14.86;68.92;99493.34;5061226;28;20226;-85
2021/05/23 10:58:26;;;;;;;4.47;1.10;;;;;;;15.10;68.97;99505.50;5076831;28;20230;-86
2021/05/23 11:00:54;;;;;;;1.33;1.07;;;;;;;15.11;68.37;99509.03;5077365;28;20233;-81
2021/05/23 11:03:23;;;;;;;1.87;1.10;;;;;;;14.92;68.61;99508.53;5061840;28;20227;-82
2021/05/23 11:06:05;;;;;;;1.03;0.90;;;;;;;14.94;69.44;99523.38;5059152;28;20537;-83
2021/05/23 11:08:33;;;;;;;1.57;1.13;;;;;;;14.89;69.45;99534.09;5075612;28;20228;-84
2021/05/23 11:10:59;;;;;;;1.00;0.80;;;;;;;14.96;69.86;99529.34;5077005;28;20229;-84
2021/05/23 11:13:26;;;;;;;1.17;0.77;;;;;;;14.97;69.53;99543.66;5044182;28;20231;-85
2021/05/23 11:15:54;;;;;;;0.97;0.80;;;;;;;14.99;69.84;99552.31;5057614;28;20694;-84
2021/05/23 11:18:26;;;;;;;3.30;0.80;;;;;;;15.08;69.84;99550.81;5071304;28;20324;-87
2021/05/23 11:21:03;;;;;;;1.30;0.90;;;;;;;15.21;69.52;99561.22;5060141;28;20230;-87
2021/05/23 11:23:31;;;;;;;1.97;0.83;;;;;;;15.14;68.81;99562.47;5044969;28;20287;-87
2021/05/23 11:26:17;;;;;;;0.60;0.60;;;;;;;14.94;69.45;99560.31;5040103;28;20544;-87
2021/05/23 11:28:55;;;;;;;1.60;0.60;;;;;;;14.96;68.70;99559.03;5073224;28;20277;-83
2021/05/23 11:31:28;;;;;;;0.90;0.70;;;;;;;15.07;68.82;99568.06;5076483;28;20229;-85
2021/05/23 11:33:59;;;;;;;1.97;0.80;;;;;;;15.11;68.91;99579.19;5072191;28;20564;-82
2021/05/23 11:36:30;;;;;;;0.90;0.70;;;;;;;15.05;69.20;99580.16;5099340;23;20234;31
2021/05/23 11:38:59;;;;;;;1.03;0.80;;;;;;;15.20;68.41;99580.38;5013864;28;20226;-82
2021/05/23 11:41:39;;;;;;;0.87;0.57;;;;;;;15.04;68.05;99578.53;5036058;28;20655;-82
2021/05/23 11:44:10;;;;;;;2.43;0.80;;;;;;;15.28;66.02;99574.53;5033335;28;20227;-83
2021/05/23 11:46:54;;;;;;;1.73;0.57;;;;;;;15.72;65.57;99575.34;5022351;28;20228;-84
2021/05/23 11:49:36;;;;;;;0.67;0.50;;;;;;;15.99;63.76;99567.22;5045966;28;20228;-80
2021/05/23 11:52:59;;;;;;;1.47;0.60;;;;;;;16.60;61.96;99566.69;5153311;22;20219;-82
2021/05/23 11:56:12;;;;;;;1.30;0.50;;;;;;;16.41;61.70;99580.84;5074573;28;20322;-83
2021/05/23 11:59:16;;;;;;;0.40;0.30;;;;;;;16.81;58.69;99581.16;5061337;28;20235;-84
2021/05/23 12:01:48;;;;;;;1.03;0.60;;;;;;;16.57;58.89;99564.44;5061604;28;20231;-81
2021/05/23 12:04:17;;;;;;;0.83;0.50;;;;;;;17.05;57.36;99570.72;5038816;28;20594;-85
2021/05/23 12:06:52;;;;;;;0.87;0.30;;;;;;;17.55;55.24;99572.81;5038794;28;20262;-86
2021/05/23 12:09:31;;;;;;;1.80;0.30;;;;;;;17.39;56.45;99558.44;5035491;28;20243;-87
2021/05/23 12:11:59;;;;;;;0.50;0.40;;;;;;;16.82;54.02;99555.72;5043069;28;20228;-81
2021/05/23 12:14:37;;;;;;;1.40;0.40;;;;;;;17.64;54.97;99570.47;5023658;28;20282;-87
2021/05/23 12:17:04;;;;;;;0.47;0.30;;;;;;;17.44;54.44;99563.88;5019860;28;20222;-85
2021/05/23 12:19:55;;;;;;;0.93;0.30;;;;;;;17.34;55.73;99538.66;5054560;28;20229;-83
2021/05/23 12:22:35;;;;;;;0.40;0.30;;;;;;;17.99;54.04;99546.94;5056193;28;20232;-85
2021/05/23 12:25:06;;;;;;;1.60;0.90;;;;;;;17.89;53.96;99551.53;5019869;28;20311;-85
2021/05/23 12:27:43;;;;;;;0.30;0.20;;;;;;;17.98;52.55;99539.06;5049676;28;20226;-88